Athens Ben Epps Airport
KAHN : now visible

Airfield :











YOU CAN JOIN US ON...

 
LOGIN :

Register | Disclaimer

   EN    FR    IT 

 









Legend :    VFR   Marginal VFR   IFR   Intensive IFR   Very Intensive IFR
Visi :
Ceiling :
>= 8 km
>= 3000ft
5 to 8 km
1000 to 3000 ft
1500m to 5 km
500 to 1000 ft
800 to 1500m
200 to 500 ft
< 800m
< 200 ft
Symbols :   Thunderstorms  Fog  Heavy snow  Heavy precipitations  Wind > 20 kt






- Airport Elevation : 808 ft
- IATA code : AHN


KAHN - Athens Ben Epps

CURRENT METAR :
  • 090651Z AUTO 00000KT 10SM CLR 22/21 A3011 RMK AO2 SLP189 T02220211

EXPIRED METARs :
  • 090605Z AUTO 24006KT 10SM SCT080 BKN110 22/22 A3013 RMK AO2 T02220217
  • 090551Z AUTO 24005KT 10SM VCTS FEW040 BKN080 OVC100 22/22 A3014 RMK AO2 RAB0456E46 SLP199 P0014 60014 T02220217 10250 20222 51001
  • 090451Z AUTO VRB03KT 10SM FEW043 SCT060 BKN075 24/22 A3015 RMK AO2 LTG DSNT SE AND S SLP201 T02390222 403110217

TAF KAHN
Valid from the 09 at 06:00 until the 10 at 06:00 UTC


090533Z 0906/1006 VRB03KT P6SM SHRA SCT050
FM090700 00000KT P6SM SCT070
FM091200 22003KT 5SM BR FEW012 SCT025 SCT060
FM091500 23004KT P6SM FEW025
FM091800 23005KT P6SM VCSH SCT035
PROB30 0918/0924 VRB15G25KT 4SM TSRA BR BKN035CB
KZTL FIR / North America



MET'MAP, your aeronautical weather chart ! - Copyright ORBIFLY December 2007 - Disclaimer

ORBIFLY MET'MAP TEAM :

Programming & Development : Alexandra Zaïnal
Original concept : Baudouin d'Aumeries
Technical & hardware support : Manuel Goepfert
Assistance : Marc-Olivier Méhu




SOURCES & CREDITS :

   NOAA       Earth
Advisory